Aviation Digital Data Service (ADDS)

Output produced by METARs form (0911 UTC 13 August 2022)
found at http://www.aviationweather.gov/metar/data/
 
KPAO 130347Z 30008KT 10SM SKC 18/11 A3002 RMK LAST
KSQL 130855Z AUTO 00000KT 10SM CLR 16/12 A3002 RMK AO2
KSJC 130853Z AUTO 30003KT 10SM CLR 17/12 A3001 RMK AO2 SLP160 T01670122 58008
KSJC 130539Z 1306/1406 30008KT P6SM SKC 
     FM132000 33015KT P6SM SKC 
     FM140400 34008KT P6SM SKC
       
KSFO 130856Z 29008KT 10SM FEW009 16/12 A3001 RMK AO2 SLP161 T01560117 58000
KSFO 130901Z 1309/1412 28010KT P6SM SCT009 
     FM131800 28015G26KT P6SM SKC 
     FM140300 27010G22KT P6SM SCT008 
     FM140500 27008KT P6SM SCT008
       
KHWD 130854Z 00000KT 10SM CLR 16/12 A3001 RMK AO2 SLP170 T01610122 58004
KOAK 130853Z 20008KT 10SM FEW011 16/13 A3002 RMK AO2 SLP163 T01610128 57004
KOAK 130539Z 1306/1412 27007KT P6SM FEW011 
     FM131200 27007KT P6SM BKN012 
     FM131730 25008G16KT P6SM FEW011 
     FM140300 VRB04KT P6SM BKN008
       
KLVK 130853Z AUTO 30004KT 10SM CLR 15/12 A3000 RMK AO2 SLP155 T01500122 58004 $
KLVK 130539Z 1306/1406 VRB04KT P6SM SKC 
     FM132100 27010KT P6SM SKC 
     FM140300 VRB04KT P6SM SKC
       
KCCR 130853Z AUTO 19012KT 10SM CLR 17/12 A2998 RMK AO2 SLP138 T01670117 53000
KSCK 130855Z AUTO 34005KT 10SM CLR 18/09 A2995 RMK AO2 SLP141 T01780089 55000
KSCK 130520Z 1306/1406 29009KT P6SM SKC
       
KSNS 130853Z AUTO 34005KT 10SM CLR 17/12 A3001 RMK AO2 SLP171 T01670122 58003 TSNO
KSNS 130539Z 1306/1406 33006KT P6SM SCT008 
     TEMPO 1312/1315 BKN008 
     FM131800 29012KT P6SM SKC 
     FM140400 30008KT P6SM SKC
       
KCVH 130855Z AUTO 00000KT 10SM CLR 16/11 A3002 RMK A01